Time;durP1;ratioP1;P1;durP2;ratioP2;P2;SDS_P1;SDS_P2;PMS_P1;PMS_P2;Temp;Humidity;BMP_temperature;BMP_pressure;BME280_temperature;BME280_humidity;BME280_pressure;Samples;Min_cycle;Max_cycle;Signal;HPM_P1;HPM_P2
2023/10/13 00:01:11;;;;;;;4.63;4.30;;;22.90;99.90;;;;;;5017158;28;20473;-57
2023/10/13 00:03:39;;;;;;;5.60;4.20;;;22.90;99.90;;;;;;5018433;28;21448;-57
2023/10/13 00:06:08;;;;;;;3.90;3.60;;;22.90;99.90;;;;;;5019075;28;20804;-57
2023/10/13 00:08:36;;;;;;;3.83;3.53;;;22.90;99.90;;;;;;5018876;28;20870;-58
2023/10/13 00:11:04;;;;;;;3.90;3.50;;;22.90;99.90;;;;;;5018499;28;20577;-58
2023/10/13 00:13:40;;;;;;;4.13;3.80;;;22.80;99.90;;;;;;5016761;28;20978;-59
2023/10/13 00:16:10;;;;;;;4.03;3.63;;;22.80;99.90;;;;;;5017717;28;20462;-57
2023/10/13 00:18:41;;;;;;;5.10;4.70;;;22.80;99.90;;;;;;5018584;28;20477;-56
2023/10/13 00:21:13;;;;;;;4.23;3.83;;;22.80;99.90;;;;;;5018682;28;20916;-58
2023/10/13 00:23:43;;;;;;;4.10;3.73;;;22.80;99.90;;;;;;5016929;28;20508;-58
2023/10/13 00:26:10;;;;;;;4.37;3.97;;;22.80;99.90;;;;;;5019669;28;20461;-58
2023/10/13 00:28:45;;;;;;;3.20;3.00;;;22.90;99.90;;;;;;5017309;28;20485;-58
2023/10/13 00:31:14;;;;;;;6.23;3.83;;;22.80;99.90;;;;;;5018947;28;20468;-56
2023/10/13 00:33:42;;;;;;;4.20;3.80;;;22.80;99.90;;;;;;5016536;28;21048;-58
2023/10/13 00:36:09;;;;;;;5.00;4.60;;;22.80;99.90;;;;;;5017853;28;21001;-57
2023/10/13 00:38:37;;;;;;;3.60;3.30;;;22.80;99.90;;;;;;5018395;28;20457;-57
2023/10/13 00:41:14;;;;;;;4.00;3.70;;;22.80;99.90;;;;;;5018527;28;20617;-58
2023/10/13 00:43:48;;;;;;;4.57;4.17;;;22.80;99.90;;;;;;5015332;28;20466;-56
2023/10/13 00:46:18;;;;;;;4.20;3.80;;;22.80;99.90;;;;;;5017815;28;21349;-57
2023/10/13 00:48:51;;;;;;;4.20;3.80;;;22.80;99.90;;;;;;5018754;28;20483;-57
2023/10/13 00:51:22;;;;;;;4.67;3.50;;;22.80;99.90;;;;;;5017044;28;20855;-56
2023/10/13 00:53:50;;;;;;;4.23;3.80;;;22.80;99.90;;;;;;5018643;28;20858;-58
2023/10/13 00:56:21;;;;;;;4.00;3.70;;;22.80;99.90;;;;;;5020025;28;20461;-58
2023/10/13 00:58:50;;;;;;;4.23;3.83;;;22.80;99.90;;;;;;5016786;28;20463;-58
2023/10/13 01:01:21;;;;;;;4.77;4.37;;;22.80;99.90;;;;;;5011477;28;20968;-59
2023/10/13 01:03:50;;;;;;;4.33;3.93;;;22.80;99.90;;;;;;5016529;28;20497;-58
2023/10/13 01:06:17;;;;;;;4.00;3.73;;;22.80;99.90;;;;;;5016243;28;20462;-57
2023/10/13 01:08:50;;;;;;;4.27;3.37;;;22.80;99.90;;;;;;5016010;28;20480;-57
2023/10/13 01:11:17;;;;;;;4.57;4.03;;;22.70;99.90;;;;;;5015370;28;20458;-56
2023/10/13 01:13:47;;;;;;;4.47;4.10;;;22.80;99.90;;;;;;5018146;28;20466;-58
2023/10/13 01:16:12;;;;;;;4.57;4.17;;;22.70;99.90;;;;;;5016224;28;20477;-57
2023/10/13 01:18:47;;;;;;;4.87;4.00;;;22.80;99.90;;;;;;5015975;28;20982;-57
2023/10/13 01:21:16;;;;;;;4.53;4.13;;;22.70;99.90;;;;;;5018675;28;20196;-59
2023/10/13 01:23:46;;;;;;;4.50;3.80;;;22.70;99.90;;;;;;5019521;28;20589;-56
2023/10/13 01:26:13;;;;;;;3.60;3.30;;;22.70;99.90;;;;;;5018558;28;20454;-57
2023/10/13 01:28:46;;;;;;;4.00;3.70;;;22.70;99.90;;;;;;5017423;28;20474;-57
2023/10/13 01:31:16;;;;;;;3.80;3.50;;;22.80;99.90;;;;;;5019754;28;20477;-58
2023/10/13 01:33:42;;;;;;;4.80;3.90;;;22.70;99.90;;;;;;5018271;28;20482;-58
2023/10/13 01:36:12;;;;;;;3.80;3.50;;;22.80;99.90;;;;;;5016649;28;20458;-58
2023/10/13 01:38:41;;;;;;;6.90;4.20;;;22.70;99.90;;;;;;5021079;28;20481;-57
2023/10/13 01:41:09;;;;;;;3.63;3.33;;;22.70;99.90;;;;;;5017111;28;20454;-57
2023/10/13 01:43:35;;;;;;;4.77;4.37;;;22.70;99.90;;;;;;5018693;28;20501;-57
2023/10/13 01:46:03;;;;;;;4.20;3.80;;;22.70;99.90;;;;;;5022890;28;22657;-58
2023/10/13 01:48:32;;;;;;;4.40;4.00;;;22.70;99.90;;;;;;5025508;28;21216;-58
2023/10/13 01:51:05;;;;;;;3.83;3.40;;;22.70;99.90;;;;;;5019383;28;20446;-57
2023/10/13 01:53:31;;;;;;;3.50;3.20;;;22.70;99.90;;;;;;5023810;28;20591;-58
2023/10/13 01:55:58;;;;;;;3.60;3.30;;;22.70;99.90;;;;;;5022437;28;20455;-56
2023/10/13 01:58:28;;;;;;;3.27;3.00;;;22.70;99.90;;;;;;5023217;28;20207;-57
2023/10/13 02:00:56;;;;;;;4.00;3.60;;;22.70;99.90;;;;;;5020103;28;20454;-56
2023/10/13 02:03:22;;;;;;;4.53;4.13;;;22.70;99.90;;;;;;5022670;28;20954;-57
2023/10/13 02:05:52;;;;;;;3.47;3.07;;;22.70;99.90;;;;;;5020868;28;20458;-56
2023/10/13 02:08:23;;;;;;;3.77;3.47;;;22.70;99.90;;;;;;5020229;28;20478;-57
2023/10/13 02:10:50;;;;;;;3.77;3.43;;;22.70;99.90;;;;;;5020934;28;20476;-58
2023/10/13 02:13:20;;;;;;;3.90;3.60;;;22.70;99.90;;;;;;5022166;28;20457;-56
2023/10/13 02:15:51;;;;;;;4.10;3.70;;;22.70;99.90;;;;;;5019222;28;20458;-57
2023/10/13 02:18:20;;;;;;;4.27;3.87;;;22.70;99.90;;;;;;5022600;28;20553;-57
2023/10/13 02:20:54;;;;;;;3.87;3.50;;;22.70;99.90;;;;;;5015093;28;20512;-57
2023/10/13 02:23:20;;;;;;;3.60;3.30;;;22.60;99.90;;;;;;5021035;28;20619;-56
2023/10/13 02:25:47;;;;;;;3.33;3.03;;;22.60;99.90;;;;;;5019960;28;20518;-59
2023/10/13 02:28:14;;;;;;;3.67;3.30;;;22.60;99.90;;;;;;5020826;28;20524;-57
2023/10/13 02:30:44;;;;;;;4.77;4.37;;;22.70;99.90;;;;;;5018198;28;20454;-58
2023/10/13 02:33:12;;;;;;;4.30;3.90;;;22.60;99.90;;;;;;5022386;28;20468;-55
2023/10/13 02:35:53;;;;;;;4.30;3.90;;;22.60;99.90;;;;;;5021020;28;20446;-57
2023/10/13 02:38:27;;;;;;;4.10;3.70;;;22.60;99.90;;;;;;5020263;28;20527;-58
2023/10/13 02:40:54;;;;;;;4.80;4.40;;;22.60;99.90;;;;;;5019235;28;20664;-57
2023/10/13 02:43:22;;;;;;;3.20;2.90;;;22.60;99.90;;;;;;5021629;28;20602;-58
2023/10/13 02:45:57;;;;;;;4.37;3.43;;;22.60;99.90;;;;;;5018556;28;20458;-58
2023/10/13 02:48:39;;;;;;;4.00;3.70;;;22.60;99.90;;;;;;5022040;28;20539;-57
2023/10/13 02:51:15;;;;;;;4.33;3.93;;;22.60;99.90;;;;;;5021043;28;20462;-57
2023/10/13 02:53:41;;;;;;;4.10;3.70;;;22.60;99.90;;;;;;5018926;28;20453;-56
2023/10/13 02:56:08;;;;;;;3.43;3.13;;;22.60;99.90;;;;;;5017605;28;20485;-58
2023/10/13 02:58:45;;;;;;;3.60;3.30;;;22.60;99.90;;;;;;5020079;28;20620;-58
2023/10/13 03:01:18;;;;;;;4.70;4.20;;;22.60;99.90;;;;;;5018872;28;20971;-57
2023/10/13 03:03:50;;;;;;;4.00;3.70;;;22.60;99.90;;;;;;5020005;28;20505;-57
2023/10/13 03:06:18;;;;;;;3.57;3.23;;;22.60;99.90;;;;;;5018637;28;21056;-56
2023/10/13 03:08:44;;;;;;;4.27;3.90;;;22.60;99.90;;;;;;5018354;28;20497;-58
2023/10/13 03:11:13;;;;;;;3.03;2.80;;;22.60;99.90;;;;;;5019403;28;20454;-58
2023/10/13 03:13:44;;;;;;;3.70;3.40;;;22.60;99.90;;;;;;5020502;28;20632;-58
2023/10/13 03:16:16;;;;;;;3.70;3.40;;;22.60;99.90;;;;;;5016352;28;20456;-57
2023/10/13 03:18:53;;;;;;;3.77;3.47;;;22.60;99.90;;;;;;5019448;28;21102;-57
2023/10/13 03:21:31;;;;;;;4.20;3.80;;;22.60;99.90;;;;;;5018624;28;20489;-58
2023/10/13 03:24:05;;;;;;;4.40;4.10;;;22.60;99.90;;;;;;5019901;28;20449;-57
2023/10/13 03:26:36;;;;;;;3.23;2.93;;;22.60;99.90;;;;;;5016734;28;20464;-58
2023/10/13 03:29:03;;;;;;;3.63;3.33;;;22.60;99.90;;;;;;5020056;28;21277;-58
2023/10/13 03:31:36;;;;;;;5.07;3.83;;;22.60;99.90;;;;;;5020073;28;20650;-56
2023/10/13 03:34:10;;;;;;;4.10;3.80;;;22.60;99.90;;;;;;5021943;28;21111;-58
2023/10/13 03:36:58;;;;;;;3.20;2.90;;;22.60;99.90;;;;;;5020892;28;20548;-58
2023/10/13 03:39:29;;;;;;;3.57;3.27;;;22.60;99.90;;;;;;5022565;28;20469;-57
2023/10/13 03:41:59;;;;;;;3.93;3.60;;;22.60;99.90;;;;;;5017502;28;20467;-57
2023/10/13 03:44:30;;;;;;;4.27;3.87;;;22.60;99.90;;;;;;5020816;28;20484;-57
2023/10/13 03:46:57;;;;;;;3.60;3.30;;;22.50;99.90;;;;;;5020207;28;20456;-56
2023/10/13 03:49:25;;;;;;;3.67;3.37;;;22.50;99.90;;;;;;5018476;28;20504;-58
2023/10/13 03:51:54;;;;;;;3.30;3.00;;;22.50;99.90;;;;;;5019372;28;20504;-56
2023/10/13 03:54:22;;;;;;;3.73;3.43;;;22.50;99.90;;;;;;5021729;28;20723;-58
2023/10/13 03:56:52;;;;;;;3.47;3.20;;;22.50;99.90;;;;;;5019217;28;22290;-58
2023/10/13 03:59:19;;;;;;;3.90;3.60;;;22.60;99.90;;;;;;5016687;28;20466;-57
2023/10/13 04:01:47;;;;;;;3.57;3.27;;;22.50;99.90;;;;;;5017619;28;20467;-55
2023/10/13 04:04:15;;;;;;;3.53;3.20;;;22.50;99.90;;;;;;5022824;28;20477;-56
2023/10/13 04:06:59;;;;;;;3.73;3.10;;;22.50;99.90;;;;;;5022369;28;20832;-59
2023/10/13 04:17:45;;;;;;;4.37;3.97;;;22.50;99.90;;;;;;5019871;28;20962;-56
2023/10/13 04:20:26;;;;;;;3.93;3.47;;;22.50;99.90;;;;;;5016752;28;20473;-58
2023/10/13 04:26:04;;;;;;;3.60;3.30;;;22.50;99.90;;;;;;5017468;28;20559;-58
2023/10/13 04:28:35;;;;;;;3.90;3.30;;;22.50;99.90;;;;;;5020466;28;20516;-56
2023/10/13 04:31:11;;;;;;;4.40;4.00;;;22.50;99.90;;;;;;5018245;28;20511;-59
2023/10/13 04:36:36;;;;;;;3.57;3.27;;;22.50;99.90;;;;;;5015198;28;20451;-57
2023/10/13 04:39:09;;;;;;;3.50;3.20;;;22.50;99.90;;;;;;5016792;28;20462;-59
2023/10/13 04:41:39;;;;;;;2.90;2.70;;;22.40;99.90;;;;;;5018785;28;20497;-56
2023/10/13 04:44:38;;;;;;;3.33;3.03;;;22.40;99.90;;;;;;5019541;28;20486;-56
2023/10/13 04:49:51;;;;;;;4.03;3.43;;;22.40;99.90;;;;;;5018002;28;20493;-57
2023/10/13 04:55:33;;;;;;;3.30;3.00;;;22.40;99.90;;;;;;4979083;28;20458;-58
2023/10/13 04:58:11;;;;;;;3.57;3.27;;;22.40;99.90;;;;;;5020864;28;20964;-58
2023/10/13 05:03:51;;;;;;;3.53;3.23;;;22.40;99.90;;;;;;5003082;28;20797;-57
2023/10/13 05:44:55;;;;;;;3.07;2.87;;;22.40;99.90;;;;;;5021963;28;20449;-57
2023/10/13 05:47:46;;;;;;;3.23;3.03;;;22.40;99.90;;;;;;5017773;28;20461;-58
2023/10/13 05:50:29;;;;;;;3.20;2.90;;;22.40;99.90;;;;;;5016287;28;21037;-58
2023/10/13 06:28:41;;;;;;;2.90;2.70;;;22.30;99.90;;;;;;5015504;28;20453;-56
2023/10/13 06:31:13;;;;;;;2.70;2.50;;;22.40;99.90;;;;;;5019245;28;21049;-57
2023/10/13 06:33:45;;;;;;;3.37;3.07;;;22.40;99.90;;;;;;5022819;28;21150;-56
2023/10/13 06:36:13;;;;;;;3.13;2.80;;;22.40;99.90;;;;;;5014436;28;21046;-55
2023/10/13 06:38:41;;;;;;;2.90;2.70;;;22.40;99.90;;;;;;5021601;28;20470;-56
2023/10/13 06:41:08;;;;;;;2.53;2.10;;;22.40;99.90;;;;;;5018373;28;20460;-56
2023/10/13 06:43:39;;;;;;;2.30;1.93;;;22.50;99.90;;;;;;5021001;28;20446;-54
2023/10/13 06:46:07;;;;;;;2.47;2.27;;;22.50;99.90;;;;;;5019585;28;20660;-56
2023/10/13 06:48:34;;;;;;;2.93;2.60;;;22.50;99.90;;;;;;5020845;28;20548;-56
2023/10/13 06:51:06;;;;;;;2.80;2.60;;;22.50;99.90;;;;;;5021119;28;20490;-55
2023/10/13 06:53:37;;;;;;;3.00;2.70;;;22.50;99.90;;;;;;5021562;28;20454;-57
2023/10/13 06:56:08;;;;;;;2.47;2.27;;;22.60;99.90;;;;;;5019593;28;21068;-54
2023/10/13 06:58:35;;;;;;;2.63;2.43;;;22.60;99.90;;;;;;5014355;28;20454;-57
2023/10/13 07:01:14;;;;;;;2.70;2.50;;;22.60;99.90;;;;;;5018563;28;20466;-57
2023/10/13 07:03:41;;;;;;;2.40;2.20;;;22.60;99.90;;;;;;5020527;28;20765;-54
2023/10/13 07:06:17;;;;;;;1.90;1.80;;;22.60;99.90;;;;;;5017896;28;20806;-54
2023/10/13 07:08:51;;;;;;;2.37;2.17;;;22.60;99.90;;;;;;5017110;28;20462;-55
2023/10/13 07:11:22;;;;;;;2.40;2.20;;;22.60;99.90;;;;;;5018480;28;20545;-55
2023/10/13 07:13:52;;;;;;;2.17;1.97;;;22.60;99.90;;;;;;5020316;28;20462;-56
2023/10/13 07:16:18;;;;;;;2.33;2.13;;;22.60;99.90;;;;;;5017121;28;20460;-54
2023/10/13 07:18:52;;;;;;;2.47;2.27;;;22.70;99.90;;;;;;5019976;28;20467;-57
2023/10/13 07:21:24;;;;;;;3.03;2.83;;;22.60;99.90;;;;;;5020611;28;20449;-58
2023/10/13 07:24:08;;;;;;;2.23;2.13;;;22.70;99.90;;;;;;5017612;28;20462;-54
2023/10/13 07:26:35;;;;;;;2.93;2.67;;;22.70;99.90;;;;;;5019445;28;20466;-53
2023/10/13 07:29:02;;;;;;;2.50;2.30;;;22.70;99.90;;;;;;5016339;28;20469;-56
2023/10/13 07:31:29;;;;;;;3.20;2.30;;;22.70;99.90;;;;;;5019195;28;20474;-55
2023/10/13 07:34:04;;;;;;;3.00;2.67;;;22.70;99.90;;;;;;5022517;28;20474;-57
2023/10/13 07:36:33;;;;;;;2.40;2.20;;;22.70;99.90;;;;;;5022589;28;21004;-57
2023/10/13 07:39:20;;;;;;;2.60;2.40;;;22.70;99.90;;;;;;5020117;28;20512;-56
2023/10/13 07:41:51;;;;;;;3.30;2.77;;;22.70;99.90;;;;;;5016753;28;20469;-56
2023/10/13 07:44:19;;;;;;;2.43;2.03;;;22.70;99.90;;;;;;5022794;28;20459;-54
2023/10/13 07:46:52;;;;;;;2.57;2.37;;;22.70;99.90;;;;;;5022186;28;20480;-54
2023/10/13 07:49:20;;;;;;;3.10;2.37;;;22.70;99.90;;;;;;5020469;28;20482;-56
2023/10/13 07:51:49;;;;;;;3.70;1.97;;;22.70;99.90;;;;;;5019848;28;20466;-54
2023/10/13 07:54:21;;;;;;;2.90;2.20;;;22.70;99.90;;;;;;5019077;28;21052;-55
2023/10/13 07:56:48;;;;;;;3.23;2.93;;;22.70;99.90;;;;;;5018432;28;20553;-56
2023/10/13 07:59:16;;;;;;;4.07;2.73;;;22.70;99.90;;;;;;5019054;28;20458;-57
2023/10/13 08:01:43;;;;;;;3.47;3.17;;;22.70;99.90;;;;;;5013207;28;20529;-53
2023/10/13 08:04:12;;;;;;;5.70;3.10;;;22.70;99.90;;;;;;5020156;28;21042;-57
2023/10/13 08:06:40;;;;;;;3.23;2.87;;;22.70;99.90;;;;;;5019216;28;20485;-56
2023/10/13 08:09:29;;;;;;;4.33;2.60;;;22.80;99.90;;;;;;5019955;28;20463;-55
2023/10/13 08:11:58;;;;;;;3.60;2.50;;;22.70;99.90;;;;;;5020011;28;20487;-56
2023/10/13 08:14:29;;;;;;;3.53;2.90;;;22.70;99.90;;;;;;5017755;28;20464;-56
2023/10/13 08:16:59;;;;;;;4.00;3.50;;;22.70;99.90;;;;;;5013916;28;20463;-54
2023/10/13 08:19:28;;;;;;;3.63;3.03;;;22.70;99.90;;;;;;5015359;28;20470;-55
2023/10/13 08:21:58;;;;;;;2.63;2.43;;;22.70;99.90;;;;;;5017952;28;20462;-56
2023/10/13 08:24:29;;;;;;;3.37;2.63;;;22.80;99.90;;;;;;5013146;28;20485;-57
2023/10/13 08:30:26;;;;;;;4.70;3.13;;;22.80;99.90;;;;;;5000446;28;20471;-56
2023/10/13 08:32:56;;;;;;;3.27;2.97;;;22.80;99.90;;;;;;5017816;28;20905;-56
2023/10/13 08:35:33;;;;;;;3.20;2.90;;;22.80;99.90;;;;;;5014292;28;20577;-55
2023/10/13 08:38:04;;;;;;;3.60;2.80;;;22.80;99.90;;;;;;5020959;28;20969;-57
2023/10/13 08:43:18;;;;;;;3.87;3.47;;;22.80;99.90;;;;;;5011662;28;20972;-57
2023/10/13 08:45:54;;;;;;;4.17;3.77;;;22.80;99.90;;;;;;5011614;28;20929;-57
2023/10/13 08:48:26;;;;;;;4.57;3.70;;;22.80;99.90;;;;;;5019193;28;20497;-57
2023/10/13 08:50:55;;;;;;;6.03;3.30;;;22.80;99.90;;;;;;5012024;28;20808;-57
2023/10/13 08:53:31;;;;;;;4.10;3.70;;;22.90;99.90;;;;;;5018505;28;20472;-56
2023/10/13 08:56:14;;;;;;;3.83;3.17;;;22.80;99.90;;;;;;5016110;28;20498;-57
2023/10/13 08:59:05;;;;;;;4.90;3.13;;;22.90;99.90;;;;;;5017371;28;20827;-56
2023/10/13 09:01:37;;;;;;;3.80;2.80;;;22.90;99.90;;;;;;5016841;28;20462;-57
2023/10/13 09:04:32;;;;;;;4.50;4.10;;;22.90;99.90;;;;;;5016079;28;21132;-56
2023/10/13 09:07:09;;;;;;;3.53;2.80;;;22.90;99.90;;;;;;5017988;28;20808;-56
2023/10/13 09:10:10;;;;;;;3.63;3.33;;;22.90;99.90;;;;;;5016617;28;20911;-56
2023/10/13 09:12:38;;;;;;;4.37;3.50;;;22.90;99.90;;;;;;5016963;28;20863;-56
2023/10/13 09:15:18;;;;;;;4.20;3.80;;;22.90;99.90;;;;;;5014833;28;20453;-57
2023/10/13 09:17:48;;;;;;;3.63;3.33;;;22.90;99.90;;;;;;5015894;28;20456;-54
2023/10/13 09:20:32;;;;;;;3.40;3.10;;;22.90;99.90;;;;;;5016321;28;23008;-56
2023/10/13 09:23:07;;;;;;;3.40;3.10;;;22.90;99.90;;;;;;5015027;28;20516;-56
2023/10/13 09:25:36;;;;;;;4.47;3.60;;;22.90;99.90;;;;;;5011530;28;20893;-57
2023/10/13 09:28:09;;;;;;;3.83;3.53;;;22.90;99.90;;;;;;5014423;28;20455;-56
2023/10/13 09:30:43;;;;;;;4.63;3.30;;;22.90;99.90;;;;;;5014275;28;20805;-55
2023/10/13 09:33:15;;;;;;;3.57;3.27;;;22.90;99.90;;;;;;5013331;28;20476;-56
2023/10/13 09:35:49;;;;;;;4.23;3.80;;;22.90;99.90;;;;;;5011760;28;20477;-56
2023/10/13 09:38:15;;;;;;;4.10;3.70;;;22.90;99.90;;;;;;5014446;28;20964;-55
2023/10/13 09:40:46;;;;;;;4.30;3.77;;;22.90;99.90;;;;;;5010803;28;20473;-55
2023/10/13 09:43:14;;;;;;;4.03;3.60;;;22.90;99.90;;;;;;5013444;28;20478;-55
2023/10/13 09:45:56;;;;;;;3.97;3.57;;;22.90;99.90;;;;;;5015419;28;20467;-56
2023/10/13 09:48:31;;;;;;;4.60;3.90;;;22.90;99.90;;;;;;5020056;28;20893;-55
2023/10/13 09:51:02;;;;;;;3.90;3.50;;;22.90;99.90;;;;;;5019084;28;20466;-55
2023/10/13 09:53:29;;;;;;;3.97;3.10;;;23.00;99.90;;;;;;5018630;28;20577;-54
2023/10/13 09:56:11;;;;;;;3.40;3.10;;;23.00;99.90;;;;;;5012670;28;20493;-55
2023/10/13 09:58:47;;;;;;;3.70;3.40;;;23.00;99.90;;;;;;5015448;28;20638;-56
2023/10/13 10:01:21;;;;;;;4.93;2.90;;;23.00;99.90;;;;;;5015945;28;20813;-57
2023/10/13 10:03:52;;;;;;;3.93;3.60;;;23.00;99.90;;;;;;5016448;28;20471;-55
2023/10/13 10:06:28;;;;;;;3.97;3.50;;;23.00;99.90;;;;;;5019874;28;20449;-57
2023/10/13 10:09:10;;;;;;;4.20;3.37;;;23.00;99.90;;;;;;5016802;28;20467;-57
2023/10/13 10:12:02;;;;;;;4.20;3.80;;;23.00;99.90;;;;;;5018945;28;20498;-57
2023/10/13 10:14:44;;;;;;;5.67;4.10;;;23.00;99.90;;;;;;5018459;28;20805;-58
2023/10/13 10:17:14;;;;;;;6.57;4.23;;;23.00;99.90;;;;;;5021443;28;20854;-59
2023/10/13 10:19:48;;;;;;;12.77;4.00;;;23.00;99.90;;;;;;5020587;28;20461;-60
2023/10/13 10:22:26;;;;;;;8.37;5.10;;;23.00;99.90;;;;;;5016717;28;20473;-57
2023/10/13 10:24:57;;;;;;;8.83;4.87;;;23.00;99.90;;;;;;5016459;28;20445;-56
2023/10/13 10:27:29;;;;;;;5.10;4.30;;;23.00;99.90;;;;;;5011364;28;20462;-57
2023/10/13 10:29:56;;;;;;;9.33;5.10;;;23.00;99.90;;;;;;5010742;28;20490;-60
2023/10/13 10:32:33;;;;;;;7.73;4.70;;;23.00;99.90;;;;;;5011974;28;20462;-61
2023/10/13 10:35:09;;;;;;;17.23;4.83;;;23.10;99.90;;;;;;5014915;28;20802;-60
2023/10/13 10:37:37;;;;;;;7.57;3.93;;;23.00;99.90;;;;;;5019403;28;20573;-54
2023/10/13 10:40:08;;;;;;;13.63;4.70;;;23.00;99.90;;;;;;5020890;28;20614;-57
2023/10/13 10:42:35;;;;;;;9.10;5.97;;;23.10;99.90;;;;;;5017377;28;20466;-58
2023/10/13 10:45:09;;;;;;;5.63;4.73;;;23.10;99.90;;;;;;5015152;28;20501;-61
2023/10/13 10:47:38;;;;;;;8.63;4.33;;;23.10;99.90;;;;;;5015997;28;20463;-59
2023/10/13 10:50:18;;;;;;;7.57;6.23;;;23.10;99.90;;;;;;5016221;28;20478;-58
2023/10/13 10:52:46;;;;;;;8.27;6.10;;;23.10;99.90;;;;;;5018858;28;20466;-59
2023/10/13 10:55:14;;;;;;;7.93;5.60;;;23.10;99.90;;;;;;5010023;28;20465;-58
2023/10/13 10:57:43;;;;;;;10.07;5.00;;;23.20;99.90;;;;;;5018364;28;20466;-57
2023/10/13 11:00:20;;;;;;;12.10;4.93;;;23.20;99.90;;;;;;5017321;28;20498;-57
2023/10/13 11:02:55;;;;;;;16.57;5.20;;;23.20;99.90;;;;;;5015973;28;20799;-55
2023/10/13 11:05:24;;;;;;;13.23;5.13;;;23.20;99.90;;;;;;5016520;28;20497;-58
2023/10/13 11:07:51;;;;;;;12.53;5.17;;;23.20;99.90;;;;;;5014874;28;20467;-59
2023/10/13 11:10:27;;;;;;;6.70;5.13;;;23.20;99.90;;;;;;5014348;28;21658;-57
2023/10/13 11:13:11;;;;;;;10.87;5.20;;;23.20;99.90;;;;;;5016570;28;20459;-57
2023/10/13 11:15:44;;;;;;;10.00;5.30;;;23.30;99.90;;;;;;5014503;28;21013;-59
2023/10/13 11:18:16;;;;;;;9.70;6.03;;;23.30;99.90;;;;;;5014141;28;21075;-60
2023/10/13 11:20:44;;;;;;;8.67;5.87;;;23.30;99.90;;;;;;5016276;28;20461;-58
2023/10/13 11:23:12;;;;;;;9.60;6.07;;;23.30;99.90;;;;;;5016276;28;20558;-57
2023/10/13 11:25:39;;;;;;;10.87;5.90;;;23.30;99.90;;;;;;5015613;28;20467;-59
2023/10/13 11:28:19;;;;;;;6.93;5.20;;;23.30;99.90;;;;;;5015274;28;20462;-57
2023/10/13 11:30:49;;;;;;;9.30;7.10;;;23.40;99.90;;;;;;5012652;28;20956;-59
2023/10/13 11:33:23;;;;;;;8.40;5.43;;;23.40;99.90;;;;;;5008244;28;20460;-57
2023/10/13 11:35:55;;;;;;;10.77;7.40;;;23.40;99.90;;;;;;5016062;28;20461;-55
2023/10/13 11:38:26;;;;;;;13.50;6.77;;;23.40;99.90;;;;;;5015118;28;20457;-53
2023/10/13 11:43:52;;;;;;;10.30;7.13;;;23.40;99.90;;;;;;5012143;28;20460;-55
2023/10/13 11:46:55;;;;;;;23.93;7.30;;;23.40;99.90;;;;;;5009036;28;21437;-57
2023/10/13 11:49:17;;;;;;;9.97;5.77;;;23.40;99.90;;;;;;5012608;28;20450;-53
2023/10/13 11:51:45;;;;;;;8.70;7.20;;;23.40;99.90;;;;;;5012924;28;20476;-56
2023/10/13 11:54:12;;;;;;;11.40;6.30;;;23.50;99.90;;;;;;5015626;28;20526;-54
2023/10/13 11:56:39;;;;;;;14.00;6.33;;;23.50;99.90;;;;;;5016617;28;20465;-56
2023/10/13 11:59:06;;;;;;;8.80;5.90;;;23.50;99.90;;;;;;5015646;28;20650;-56
2023/10/13 12:04:43;;;;;;;10.67;6.87;;;23.50;99.90;;;;;;5011591;28;20464;-60
2023/10/13 12:07:19;;;;;;;9.40;6.77;;;23.50;99.90;;;;;;5014907;28;20465;-58
2023/10/13 12:10:03;;;;;;;7.60;6.57;;;23.50;99.90;;;;;;5015590;28;20944;-60
2023/10/13 12:12:31;;;;;;;8.70;6.20;;;23.50;99.90;;;;;;5013724;28;20476;-61
2023/10/13 12:15:09;;;;;;;10.10;7.63;;;23.50;99.90;;;;;;5014733;28;20501;-55
2023/10/13 12:17:35;;;;;;;10.87;7.00;;;23.60;99.90;;;;;;5020715;28;20673;-55
2023/10/13 12:20:05;;;;;;;8.67;7.03;;;23.50;99.90;;;;;;5015557;28;21041;-57
2023/10/13 12:22:38;;;;;;;9.00;7.50;;;23.50;99.90;;;;;;5016687;28;20836;-53
2023/10/13 12:25:18;;;;;;;9.90;7.73;;;23.50;99.90;;;;;;5018946;28;20869;-55
2023/10/13 12:27:48;;;;;;;11.63;7.47;;;23.50;99.90;;;;;;5017874;28;20457;-55
2023/10/13 12:30:22;;;;;;;10.67;7.10;;;23.50;99.90;;;;;;5008046;28;21712;-56
2023/10/13 12:33:06;;;;;;;10.53;7.80;;;23.50;99.90;;;;;;5014134;28;20460;-55
2023/10/13 12:35:44;;;;;;;8.70;7.60;;;23.50;99.90;;;;;;5013578;28;21295;-56
2023/10/13 12:38:36;;;;;;;7.10;6.40;;;23.50;99.90;;;;;;5012792;28;20465;-55
2023/10/13 12:49:38;;;;;;;12.23;8.50;;;23.60;99.90;;;;;;5010435;28;21088;-60
2023/10/13 12:52:15;;;;;;;9.27;8.27;;;23.60;99.90;;;;;;5009500;28;20476;-62
2023/10/13 12:54:46;;;;;;;10.83;8.40;;;23.60;99.90;;;;;;5013670;28;20975;-59
2023/10/13 12:57:13;;;;;;;8.40;7.43;;;23.50;99.90;;;;;;5010340;28;20461;-59
2023/10/13 12:59:40;;;;;;;11.47;7.37;;;23.60;99.90;;;;;;5013638;28;20464;-59
2023/10/13 13:02:14;;;;;;;8.30;7.50;;;23.60;99.90;;;;;;5011280;28;21261;-57
2023/10/13 13:04:44;;;;;;;11.67;8.37;;;23.60;99.90;;;;;;5014924;28;20477;-59
2023/10/13 13:07:13;;;;;;;8.00;7.20;;;23.60;99.90;;;;;;5013523;28;20777;-58
2023/10/13 13:09:40;;;;;;;8.57;7.77;;;23.60;99.90;;;;;;5014658;28;20454;-54
2023/10/13 13:12:07;;;;;;;9.03;7.70;;;23.60;99.90;;;;;;5011967;28;20480;-56
2023/10/13 13:14:34;;;;;;;11.40;7.57;;;23.60;99.90;;;;;;5017555;28;20457;-58
2023/10/13 13:17:05;;;;;;;8.80;7.67;;;23.60;99.90;;;;;;5020283;28;20457;-57
2023/10/13 13:19:35;;;;;;;7.77;6.97;;;23.60;99.90;;;;;;5013743;28;20586;-58
2023/10/13 13:22:03;;;;;;;9.20;7.30;;;23.60;99.90;;;;;;5015314;28;21090;-58
2023/10/13 13:24:31;;;;;;;9.00;7.10;;;23.70;99.90;;;;;;5015859;28;20518;-53
2023/10/13 13:27:02;;;;;;;7.73;7.00;;;23.70;99.90;;;;;;5012240;28;20469;-54
2023/10/13 13:29:30;;;;;;;7.23;6.53;;;23.70;99.90;;;;;;5013806;28;20973;-55
2023/10/13 13:31:57;;;;;;;6.97;6.23;;;23.80;99.90;;;;;;5016394;28;21116;-54
2023/10/13 13:34:23;;;;;;;6.83;5.93;;;23.70;99.90;;;;;;5008853;28;20470;-54
2023/10/13 13:36:52;;;;;;;7.40;6.63;;;23.70;99.90;;;;;;5010056;28;20465;-55
2023/10/13 13:39:28;;;;;;;10.87;5.60;;;23.70;99.90;;;;;;5008257;28;22088;-54
2023/10/13 13:41:56;;;;;;;8.00;7.00;;;23.70;99.90;;;;;;5011273;28;20461;-60
2023/10/13 13:44:28;;;;;;;8.07;6.87;;;23.70;99.90;;;;;;5011197;28;20457;-62
2023/10/13 13:46:57;;;;;;;9.60;6.67;;;23.70;99.90;;;;;;5009131;28;20469;-61
2023/10/13 13:49:29;;;;;;;7.50;6.73;;;23.70;99.90;;;;;;5011953;28;20457;-59
2023/10/13 13:51:56;;;;;;;7.67;6.97;;;23.70;99.90;;;;;;5011586;28;20472;-60
2023/10/13 13:54:26;;;;;;;6.97;5.90;;;23.70;99.90;;;;;;5012865;28;20556;-59
2023/10/13 13:56:53;;;;;;;6.67;5.87;;;23.70;99.90;;;;;;5010126;28;20449;-56
2023/10/13 13:59:21;;;;;;;7.47;6.17;;;23.70;99.90;;;;;;5012910;28;20457;-55
2023/10/13 14:01:48;;;;;;;9.77;7.67;;;23.80;99.90;;;;;;5013065;28;20470;-58
2023/10/13 14:04:17;;;;;;;7.83;7.03;;;23.80;99.90;;;;;;5011792;28;20957;-57
2023/10/13 14:06:44;;;;;;;8.27;7.47;;;23.70;99.90;;;;;;5017273;28;20893;-57
2023/10/13 14:09:15;;;;;;;8.57;7.40;;;23.80;99.90;;;;;;5013975;28;20514;-57
2023/10/13 14:14:47;;;;;;;7.13;6.43;;;23.80;99.90;;;;;;5004214;28;20453;-57
2023/10/13 14:17:14;;;;;;;10.00;6.27;;;23.80;99.90;;;;;;5014097;28;20827;-57
2023/10/13 14:19:41;;;;;;;8.07;7.13;;;23.80;99.90;;;;;;5017317;28;20462;-57
2023/10/13 14:22:07;;;;;;;7.37;6.67;;;23.80;99.90;;;;;;5015128;28;20798;-58
2023/10/13 14:24:43;;;;;;;7.77;7.07;;;23.80;99.90;;;;;;5014279;28;20473;-56
2023/10/13 14:27:12;;;;;;;9.47;6.17;;;23.80;99.90;;;;;;5018786;28;20495;-55
2023/10/13 14:29:42;;;;;;;11.27;6.60;;;23.80;99.90;;;;;;5011580;28;20462;-57
2023/10/13 14:32:12;;;;;;;7.70;6.70;;;23.80;99.90;;;;;;5013485;28;20480;-58
2023/10/13 14:34:39;;;;;;;7.70;6.50;;;23.80;99.90;;;;;;5019043;28;20553;-59
2023/10/13 14:37:06;;;;;;;9.67;6.50;;;23.80;99.90;;;;;;5018371;28;20838;-56
2023/10/13 14:39:35;;;;;;;8.33;7.50;;;23.80;99.90;;;;;;5018713;28;20468;-59
2023/10/13 14:42:05;;;;;;;8.07;6.43;;;23.80;99.90;;;;;;5017298;28;20726;-60
2023/10/13 14:44:32;;;;;;;6.77;6.07;;;23.80;99.90;;;;;;5015527;28;20491;-57
2023/10/13 14:47:00;;;;;;;8.33;5.63;;;23.80;99.90;;;;;;5017267;28;20461;-60
2023/10/13 14:49:27;;;;;;;8.37;6.60;;;23.80;99.90;;;;;;5012140;28;20681;-58
2023/10/13 14:51:55;;;;;;;6.80;6.20;;;23.80;99.90;;;;;;5016711;28;20473;-59
2023/10/13 14:54:32;;;;;;;6.10;5.50;;;23.90;99.90;;;;;;5003380;28;20471;-57
2023/10/13 14:56:59;;;;;;;8.30;6.60;;;23.80;99.90;;;;;;5011706;28;20460;-55
2023/10/13 14:59:27;;;;;;;7.27;6.50;;;23.80;99.90;;;;;;5011782;28;20475;-57
2023/10/13 15:01:54;;;;;;;6.43;5.83;;;23.80;99.90;;;;;;5015109;28;20572;-58
2023/10/13 15:04:24;;;;;;;7.53;6.83;;;23.80;99.90;;;;;;5009649;28;20591;-61
2023/10/13 15:06:51;;;;;;;8.73;6.63;;;23.80;99.90;;;;;;5013835;28;20536;-61
2023/10/13 15:09:23;;;;;;;6.80;6.20;;;23.80;99.90;;;;;;5015898;28;20472;-57